createdAt,value
2019-05-28T00:01:32.801Z,99.90
2019-05-28T00:04:03.595Z,99.90
2019-05-28T00:06:34.233Z,99.90
2019-05-28T00:09:07.430Z,99.90
2019-05-28T00:11:38.287Z,99.90
2019-05-28T00:14:09.042Z,99.90
2019-05-28T00:16:39.896Z,99.90
2019-05-28T00:19:10.727Z,99.90
2019-05-28T00:21:41.293Z,99.90
2019-05-28T00:24:12.217Z,99.90
2019-05-28T00:26:43.922Z,99.90
2019-05-28T00:29:14.951Z,99.90
2019-05-28T00:31:45.579Z,99.90
2019-05-28T00:34:16.615Z,99.90
2019-05-28T00:36:47.446Z,99.90
2019-05-28T00:39:19.179Z,99.90
2019-05-28T00:41:49.910Z,99.90
2019-05-28T00:44:20.774Z,99.90
2019-05-28T00:46:51.602Z,99.90
2019-05-28T00:49:22.306Z,99.90
2019-05-28T00:51:53.309Z,99.90
2019-05-28T00:54:24.349Z,99.90
2019-05-28T00:56:56.291Z,99.90
2019-05-28T00:59:28.594Z,99.90
2019-05-28T01:01:59.291Z,99.90
2019-05-28T01:04:30.001Z,99.90
2019-05-28T01:07:00.776Z,99.90
2019-05-28T01:09:31.334Z,99.90
2019-05-28T01:12:02.314Z,99.90
2019-05-28T01:14:33.088Z,99.90
2019-05-28T01:17:03.913Z,99.90
2019-05-28T01:19:34.758Z,99.90
2019-05-28T01:22:05.597Z,99.90
2019-05-28T01:24:36.160Z,99.90
2019-05-28T01:27:06.991Z,99.90
2019-05-28T01:29:37.842Z,99.90
2019-05-28T01:32:08.600Z,99.90
2019-05-28T01:34:39.184Z,99.90
2019-05-28T01:37:09.890Z,99.90
2019-05-28T01:39:40.623Z,99.90
2019-05-28T01:42:11.183Z,99.90
2019-05-28T01:44:41.946Z,99.90
2019-05-28T01:47:12.577Z,99.90
2019-05-28T01:49:43.345Z,99.90
2019-05-28T01:52:14.189Z,99.90
2019-05-28T01:54:45.034Z,99.90
2019-05-28T01:57:15.733Z,99.90
2019-05-28T01:59:47.566Z,99.90
2019-05-28T02:02:18.273Z,99.90
2019-05-28T02:04:49.073Z,99.90
2019-05-28T02:07:19.914Z,99.90
2019-05-28T02:09:50.933Z,99.90
2019-05-28T02:12:21.605Z,99.90
2019-05-28T02:14:52.127Z,99.90
2019-05-28T02:17:22.769Z,99.90
2019-05-28T02:19:53.486Z,99.90
2019-05-28T02:22:24.328Z,99.90
2019-05-28T02:24:55.021Z,99.90
2019-05-28T02:27:25.666Z,99.90
2019-05-28T02:29:58.196Z,99.90
2019-05-28T02:32:28.830Z,99.90
2019-05-28T02:34:59.518Z,99.90
2019-05-28T02:37:31.630Z,99.90
2019-05-28T02:40:02.345Z,99.90
2019-05-28T02:42:34.934Z,99.90
2019-05-28T02:45:10.596Z,99.90
2019-05-28T02:47:41.211Z,99.90
2019-05-28T02:50:13.718Z,99.90
2019-05-28T02:52:45.234Z,99.90
2019-05-28T02:55:15.924Z,99.90
2019-05-28T02:57:48.986Z,99.90
2019-05-28T03:00:20.447Z,99.90
2019-05-28T03:02:52.775Z,99.90
2019-05-28T03:05:23.478Z,99.90
2019-05-28T03:07:55.944Z,99.90
2019-05-28T03:11:01.656Z,99.90
2019-05-28T03:13:11.637Z,99.90
2019-05-28T03:15:45.446Z,99.90
2019-05-28T03:18:17.855Z,99.90
2019-05-28T03:20:49.174Z,99.90
2019-05-28T03:23:20.512Z,99.90
2019-05-28T03:25:51.221Z,99.90
2019-05-28T03:28:21.913Z,99.90
2019-05-28T03:30:52.992Z,99.90
2019-05-28T03:33:23.819Z,99.90
2019-05-28T03:35:56.889Z,99.90
2019-05-28T03:38:28.093Z,99.90
2019-05-28T03:40:59.731Z,99.90
2019-05-28T03:43:30.414Z,99.90
2019-05-28T03:46:01.414Z,99.90
2019-05-28T03:48:32.163Z,99.90
2019-05-28T03:51:02.885Z,99.90
2019-05-28T03:53:33.501Z,99.90
2019-05-28T03:56:04.434Z,99.90
2019-05-28T03:58:35.150Z,99.90
2019-05-28T04:01:05.871Z,99.90
2019-05-28T04:03:36.716Z,99.90
2019-05-28T04:06:07.700Z,99.90
2019-05-28T04:08:38.241Z,99.90
2019-05-28T04:11:08.956Z,99.90
2019-05-28T04:13:39.722Z,99.90
2019-05-28T04:16:10.562Z,99.90
2019-05-28T04:18:41.247Z,99.90
2019-05-28T04:21:12.021Z,99.90
2019-05-28T04:23:42.856Z,99.90
2019-05-28T04:26:13.649Z,99.90
2019-05-28T04:28:44.630Z,99.90
2019-05-28T04:31:15.414Z,99.90
2019-05-28T04:33:46.106Z,99.90
2019-05-28T04:36:16.894Z,99.90
2019-05-28T04:38:47.437Z,99.90
2019-05-28T04:41:18.052Z,99.90
2019-05-28T04:43:48.840Z,99.90
2019-05-28T04:46:19.885Z,99.90
2019-05-28T04:48:50.838Z,99.90
2019-05-28T04:51:21.637Z,99.90
2019-05-28T04:53:53.245Z,99.90
2019-05-28T04:56:24.006Z,99.90
2019-05-28T04:58:54.792Z,99.90
2019-05-28T05:01:25.425Z,99.90
2019-05-28T05:03:56.478Z,99.90
2019-05-28T05:06:27.484Z,99.90
2019-05-28T05:08:58.198Z,99.90
2019-05-28T05:11:28.835Z,99.90
2019-05-28T05:13:59.521Z,99.90
2019-05-28T05:16:30.216Z,99.90
2019-05-28T05:19:00.941Z,99.90
2019-05-28T05:21:31.610Z,99.90
2019-05-28T05:24:02.259Z,99.90
2019-05-28T05:26:33.002Z,99.90
2019-05-28T05:29:03.847Z,99.90
2019-05-28T05:31:34.641Z,99.90
2019-05-28T05:34:05.495Z,99.90
2019-05-28T05:36:36.117Z,99.90
2019-05-28T05:39:10.030Z,99.90
2019-05-28T05:41:40.937Z,99.90
2019-05-28T05:44:11.580Z,99.90
2019-05-28T05:46:42.150Z,99.90
2019-05-28T05:49:13.098Z,99.90
2019-05-28T05:51:43.652Z,99.90
2019-05-28T05:54:14.241Z,99.90
2019-05-28T05:56:44.981Z,99.90
2019-05-28T05:59:17.374Z,99.90
2019-05-28T06:01:47.916Z,99.90
2019-05-28T06:04:18.714Z,99.90
2019-05-28T06:06:49.462Z,99.90
2019-05-28T06:09:20.118Z,99.90
2019-05-28T06:11:50.702Z,99.90
2019-05-28T06:14:21.272Z,99.90
2019-05-28T06:16:51.960Z,99.90
2019-05-28T06:19:22.594Z,99.90
2019-05-28T06:21:53.292Z,99.90
2019-05-28T06:24:24.066Z,99.90
2019-05-28T06:26:54.823Z,99.90
2019-05-28T06:29:25.378Z,99.90
2019-05-28T06:31:56.240Z,99.90
2019-05-28T06:34:27.087Z,99.90
2019-05-28T06:36:57.842Z,99.90
2019-05-28T06:39:28.761Z,99.90
2019-05-28T06:41:59.450Z,99.90
2019-05-28T06:44:29.989Z,99.90
2019-05-28T06:47:00.688Z,99.90
2019-05-28T06:49:31.382Z,99.90
2019-05-28T06:52:02.183Z,99.90
2019-05-28T06:54:32.944Z,99.90
2019-05-28T06:57:03.757Z,99.90
2019-05-28T06:59:35.114Z,99.90
2019-05-28T07:02:05.946Z,99.90
2019-05-28T07:04:36.482Z,99.90
2019-05-28T07:07:07.327Z,99.90
2019-05-28T07:09:38.004Z,99.90
2019-05-28T07:12:08.698Z,99.90
2019-05-28T07:14:39.514Z,99.90
2019-05-28T07:17:10.277Z,99.90
2019-05-28T07:19:40.956Z,99.90
2019-05-28T07:22:11.507Z,99.90
2019-05-28T07:24:42.038Z,99.90
2019-05-28T07:27:12.803Z,99.90
2019-05-28T07:29:43.626Z,99.90
2019-05-28T07:32:14.674Z,99.90
2019-05-28T07:34:45.274Z,99.90
2019-05-28T07:37:16.110Z,99.90
2019-05-28T07:39:47.021Z,99.90
2019-05-28T07:42:31.762Z,99.90
2019-05-28T07:44:50.249Z,99.90
2019-05-28T07:47:20.950Z,99.90
2019-05-28T07:49:51.909Z,99.90
2019-05-28T07:52:22.626Z,99.90
2019-05-28T07:54:53.228Z,99.90
2019-05-28T07:57:23.947Z,99.90
2019-05-28T07:59:54.487Z,99.90
2019-05-28T08:02:25.330Z,99.90
2019-05-28T08:04:56.326Z,99.90
2019-05-28T08:07:27.030Z,99.90
2019-05-28T08:09:57.924Z,99.90
2019-05-28T08:12:28.595Z,99.90
2019-05-28T08:14:59.201Z,99.90
2019-05-28T08:17:30.069Z,99.90
2019-05-28T08:20:00.609Z,99.90
2019-05-28T08:22:41.656Z,99.90
2019-05-28T08:25:21.965Z,99.90
2019-05-28T08:27:38.017Z,99.90
2019-05-28T08:30:08.990Z,99.90
2019-05-28T08:32:39.555Z,99.90
2019-05-28T08:35:10.289Z,99.90
2019-05-28T08:37:41.062Z,99.90
2019-05-28T08:40:12.346Z,99.90
2019-05-28T08:42:43.553Z,99.90
2019-05-28T08:45:14.615Z,99.90
2019-05-28T08:47:45.366Z,99.90
2019-05-28T08:50:32.712Z,99.90
2019-05-28T08:52:48.290Z,99.90
2019-05-28T08:55:18.967Z,99.90
2019-05-28T08:57:49.594Z,99.90
2019-05-28T09:00:38.058Z,99.90
2019-05-28T09:03:09.193Z,99.90
2019-05-28T09:05:40.478Z,99.90
2019-05-28T09:08:11.177Z,99.90
2019-05-28T09:10:44.340Z,99.90
2019-05-28T09:13:15.262Z,99.90
2019-05-28T09:15:45.974Z,99.90
2019-05-28T09:18:17.727Z,99.90
2019-05-28T09:20:48.798Z,99.90
2019-05-28T09:23:19.481Z,99.90
2019-05-28T09:25:50.325Z,99.90
2019-05-28T09:28:29.950Z,99.90
2019-05-28T09:30:54.415Z,99.90
2019-05-28T09:33:25.371Z,99.90
2019-05-28T09:36:08.317Z,99.90
2019-05-28T09:38:28.795Z,99.90
2019-05-28T09:40:59.519Z,99.90
2019-05-28T09:43:30.221Z,99.90
2019-05-28T09:46:01.004Z,99.90
2019-05-28T09:48:31.786Z,99.90
2019-05-28T09:51:02.486Z,99.90
2019-05-28T09:53:35.067Z,99.90
2019-05-28T09:56:05.983Z,99.90
2019-05-28T09:58:37.146Z,99.90
2019-05-28T10:01:08.100Z,99.90
2019-05-28T10:03:38.675Z,99.90
2019-05-28T10:06:16.966Z,99.90
2019-05-28T10:08:41.765Z,99.90
2019-05-28T10:11:12.530Z,99.90
2019-05-28T10:13:43.101Z,99.90
2019-05-28T10:16:13.878Z,99.90
2019-05-28T10:18:44.874Z,99.90
2019-05-28T10:21:18.793Z,99.90
2019-05-28T10:23:47.964Z,99.90
2019-05-28T10:26:19.037Z,99.90
2019-05-28T10:28:50.665Z,99.90
2019-05-28T10:31:21.595Z,99.90
2019-05-28T10:33:52.309Z,99.90
2019-05-28T10:36:35.063Z,99.90
2019-05-28T10:38:55.418Z,99.90
2019-05-28T10:41:26.301Z,99.90
2019-05-28T10:43:57.009Z,99.90
2019-05-28T10:46:27.571Z,99.90
2019-05-28T10:48:58.293Z,99.90
2019-05-28T10:51:29.042Z,99.90
2019-05-28T10:53:59.838Z,99.90
2019-05-28T10:56:30.459Z,99.90
2019-05-28T10:59:01.316Z,99.90
2019-05-28T11:01:31.975Z,99.90
2019-05-28T11:04:02.998Z,99.90
2019-05-28T11:06:34.033Z,99.90
2019-05-28T11:09:08.875Z,99.90
2019-05-28T11:11:39.705Z,99.90
2019-05-28T11:14:10.549Z,99.90
2019-05-28T11:16:41.227Z,99.90
2019-05-28T11:19:11.790Z,99.90
2019-05-28T11:21:42.471Z,99.90
2019-05-28T11:24:13.654Z,99.90
2019-05-28T11:26:46.963Z,99.90
2019-05-28T11:29:17.590Z,99.90
2019-05-28T11:31:48.330Z,99.90
2019-05-28T11:34:19.106Z,99.90
2019-05-28T11:36:49.971Z,99.90
2019-05-28T11:39:20.739Z,99.90
2019-05-28T11:41:51.426Z,99.90
2019-05-28T11:44:22.123Z,99.90
2019-05-28T11:46:52.960Z,99.90
2019-05-28T11:49:23.961Z,99.90
2019-05-28T11:51:54.775Z,99.90
2019-05-28T11:54:25.473Z,99.90
2019-05-28T11:56:56.003Z,99.90
2019-05-28T11:59:26.562Z,99.90
2019-05-28T12:01:57.265Z,99.90
2019-05-28T12:04:28.370Z,99.90
2019-05-28T12:06:59.004Z,99.90
2019-05-28T12:09:29.626Z,99.90
2019-05-28T12:12:01.499Z,99.90
2019-05-28T12:14:32.194Z,99.90
2019-05-28T12:17:02.897Z,99.90
2019-05-28T12:19:34.019Z,99.90
2019-05-28T12:22:04.858Z,99.90
2019-05-28T12:24:36.749Z,99.90
2019-05-28T12:27:07.541Z,99.90
2019-05-28T12:29:51.078Z,99.90
2019-05-28T12:32:11.197Z,99.90
2019-05-28T12:34:42.079Z,99.90
2019-05-28T12:37:12.776Z,99.90
2019-05-28T12:39:43.456Z,99.90
2019-05-28T12:42:14.078Z,99.90
2019-05-28T12:44:44.713Z,99.90
2019-05-28T12:47:15.670Z,99.90
2019-05-28T12:49:46.492Z,99.90
2019-05-28T12:52:17.496Z,99.90
2019-05-28T12:54:50.665Z,99.90
2019-05-28T12:57:22.750Z,99.90
2019-05-28T12:59:54.750Z,99.90
2019-05-28T13:02:25.615Z,99.90
2019-05-28T13:04:56.219Z,99.90
2019-05-28T13:07:26.909Z,99.90
2019-05-28T13:09:57.678Z,99.90
2019-05-28T13:12:28.373Z,99.90
2019-05-28T13:14:59.294Z,99.90
2019-05-28T13:17:30.887Z,99.90
2019-05-28T13:20:01.658Z,99.90
2019-05-28T13:22:32.197Z,99.90
2019-05-28T13:25:03.535Z,99.90
2019-05-28T13:27:35.214Z,99.90
2019-05-28T13:30:08.884Z,99.90
2019-05-28T13:32:39.701Z,99.90
2019-05-28T13:35:11.734Z,99.90
2019-05-28T13:37:42.923Z,99.90
2019-05-28T13:40:14.992Z,99.90
2019-05-28T13:42:45.796Z,99.90
2019-05-28T13:45:17.283Z,99.90
2019-05-28T13:47:48.414Z,99.90
2019-05-28T13:50:20.701Z,99.90
2019-05-28T13:52:51.441Z,99.90
2019-05-28T13:55:22.362Z,99.90
2019-05-28T13:57:53.525Z,99.90
2019-05-28T14:00:24.983Z,99.90
2019-05-28T14:02:55.665Z,99.90
2019-05-28T14:05:26.677Z,99.90
2019-05-28T14:07:57.237Z,99.90
2019-05-28T14:10:27.978Z,99.90
2019-05-28T14:12:58.631Z,99.90
2019-05-28T14:15:29.215Z,99.90
2019-05-28T14:17:59.783Z,99.90
2019-05-28T14:20:30.524Z,99.90
2019-05-28T14:23:01.301Z,99.90
2019-05-28T14:25:32.197Z,99.90
2019-05-28T14:28:02.759Z,99.90
2019-05-28T14:30:33.595Z,99.90
2019-05-28T14:33:04.382Z,99.90
2019-05-28T14:35:35.449Z,99.90
2019-05-28T14:38:06.008Z,99.90
2019-05-28T14:40:37.117Z,99.90
2019-05-28T14:43:07.853Z,99.90
2019-05-28T14:45:38.601Z,99.90
2019-05-28T14:48:09.235Z,99.90
2019-05-28T14:50:39.853Z,99.90
2019-05-28T14:53:10.481Z,99.90
2019-05-28T14:55:41.212Z,99.90
2019-05-28T14:58:13.693Z,99.90
2019-05-28T15:00:44.121Z,99.90
2019-05-28T15:03:14.918Z,99.90
2019-05-28T15:05:45.545Z,99.90
2019-05-28T15:08:16.071Z,99.90
2019-05-28T15:10:46.706Z,99.90
2019-05-28T15:13:17.477Z,99.90
2019-05-28T15:15:48.034Z,99.90
2019-05-28T15:18:18.573Z,99.90
2019-05-28T15:20:49.419Z,99.90
2019-05-28T15:23:20.094Z,99.90
2019-05-28T15:25:50.673Z,99.90
2019-05-28T15:28:21.281Z,99.90
2019-05-28T15:30:51.848Z,99.90
2019-05-28T15:33:22.589Z,99.90
2019-05-28T15:35:56.101Z,97.90
2019-05-28T15:38:25.736Z,99.10
2019-05-28T15:40:56.450Z,98.50
2019-05-28T15:43:27.131Z,98.30
2019-05-28T15:45:58.660Z,99.30
2019-05-28T15:48:29.604Z,98.30
2019-05-28T15:51:00.364Z,99.30
2019-05-28T15:53:30.986Z,99.90
2019-05-28T15:56:01.538Z,98.00
2019-05-28T15:58:32.230Z,97.90
2019-05-28T16:01:02.774Z,96.70
2019-05-28T16:03:33.475Z,98.30
2019-05-28T16:06:04.531Z,99.00
2019-05-28T16:08:35.438Z,97.90
2019-05-28T16:11:06.042Z,98.90
2019-05-28T16:13:36.890Z,99.20
2019-05-28T16:16:08.000Z,99.40
2019-05-28T16:18:38.774Z,98.70
2019-05-28T16:21:09.450Z,98.30
2019-05-28T16:23:40.084Z,98.60
2019-05-28T16:26:10.759Z,98.60
2019-05-28T16:28:42.762Z,98.70
2019-05-28T16:31:33.991Z,98.30
2019-05-28T16:34:05.685Z,98.50
2019-05-28T16:36:36.285Z,98.50
2019-05-28T16:39:09.659Z,98.60
2019-05-28T16:41:40.321Z,98.70
2019-05-28T16:44:11.091Z,99.20
2019-05-28T16:46:41.692Z,97.80
2019-05-28T16:49:12.643Z,98.40
2019-05-28T16:51:43.453Z,98.20
2019-05-28T16:54:19.224Z,98.50
2019-05-28T16:56:46.463Z,98.00
2019-05-28T16:59:18.965Z,98.20
2019-05-28T17:01:49.679Z,98.00
2019-05-28T17:04:20.443Z,98.40
2019-05-28T17:06:51.256Z,97.10
2019-05-28T17:09:22.332Z,98.40
2019-05-28T17:11:53.509Z,98.00
2019-05-28T17:14:27.072Z,97.80
2019-05-28T17:16:57.443Z,97.80
2019-05-28T17:19:28.298Z,97.50
2019-05-28T17:21:58.974Z,97.20
2019-05-28T17:24:29.670Z,97.10
2019-05-28T17:27:00.530Z,97.00
2019-05-28T17:29:31.267Z,97.10
2019-05-28T17:32:02.036Z,97.40
2019-05-28T17:34:33.870Z,98.40
2019-05-28T17:37:04.806Z,99.30
2019-05-28T17:39:35.791Z,99.50
2019-05-28T17:42:06.550Z,99.90
2019-05-28T17:44:37.290Z,99.90
2019-05-28T17:47:08.243Z,99.90
2019-05-28T17:49:39.018Z,99.90
2019-05-28T17:52:09.922Z,99.90
2019-05-28T17:54:41.000Z,99.90
2019-05-28T17:57:11.875Z,99.90
2019-05-28T17:59:42.693Z,99.90
2019-05-28T18:02:13.395Z,99.90
2019-05-28T18:04:44.398Z,99.90
2019-05-28T18:07:15.238Z,99.90
2019-05-28T18:09:47.075Z,99.90
2019-05-28T18:12:18.200Z,99.90
2019-05-28T18:14:49.083Z,99.90
2019-05-28T18:17:19.852Z,99.90
2019-05-28T18:19:50.388Z,99.90
2019-05-28T18:22:21.087Z,99.90
2019-05-28T18:24:51.756Z,99.90
2019-05-28T18:27:22.397Z,99.90
2019-05-28T18:29:53.074Z,99.90
2019-05-28T18:32:23.625Z,99.90
2019-05-28T18:34:54.514Z,99.90
2019-05-28T18:37:25.318Z,99.90
2019-05-28T18:39:56.101Z,99.90
2019-05-28T18:42:27.845Z,99.90
2019-05-28T18:44:58.702Z,99.90
2019-05-28T18:47:29.950Z,99.90
2019-05-28T18:50:03.743Z,99.90
2019-05-28T18:52:35.026Z,99.90
2019-05-28T18:55:08.487Z,99.90
2019-05-28T18:57:40.736Z,99.90
2019-05-28T19:00:11.904Z,99.90
2019-05-28T19:02:42.884Z,99.90
2019-05-28T19:05:14.970Z,99.90
2019-05-28T19:07:45.911Z,99.90
2019-05-28T19:10:16.927Z,99.90
2019-05-28T19:12:47.698Z,99.90
2019-05-28T19:15:18.829Z,99.90
2019-05-28T19:17:49.772Z,99.90
2019-05-28T19:20:20.595Z,99.90
2019-05-28T19:22:51.424Z,99.90
2019-05-28T19:25:22.546Z,99.90
2019-05-28T19:27:53.174Z,99.90
2019-05-28T19:30:35.066Z,99.90
2019-05-28T19:33:06.171Z,99.90
2019-05-28T19:35:37.199Z,99.90
2019-05-28T19:38:08.018Z,99.90
2019-05-28T19:40:41.261Z,99.90
2019-05-28T19:43:11.851Z,99.90
2019-05-28T19:45:42.638Z,99.90
2019-05-28T19:48:13.678Z,99.90
2019-05-28T19:50:45.191Z,99.90
2019-05-28T19:53:15.804Z,99.90
2019-05-28T19:55:46.390Z,99.90
2019-05-28T19:58:16.997Z,99.90
2019-05-28T20:00:47.849Z,99.90
2019-05-28T20:03:18.499Z,99.90
2019-05-28T20:05:49.102Z,99.90
2019-05-28T20:08:19.778Z,99.90
2019-05-28T20:10:50.946Z,99.90
2019-05-28T20:13:21.637Z,99.90
2019-05-28T20:15:52.309Z,99.90
2019-05-28T20:18:26.682Z,99.90
2019-05-28T20:20:55.932Z,99.90
2019-05-28T20:23:26.583Z,99.90
2019-05-28T20:25:57.230Z,99.90
2019-05-28T20:28:28.216Z,99.90
2019-05-28T20:30:59.764Z,99.90
2019-05-28T20:33:31.522Z,99.90
2019-05-28T20:36:02.142Z,99.90
2019-05-28T20:38:32.850Z,99.90
2019-05-28T20:41:04.006Z,99.90
2019-05-28T20:43:34.971Z,99.90
2019-05-28T20:46:06.582Z,99.90
2019-05-28T20:48:37.525Z,99.90
2019-05-28T20:51:18.355Z,99.90
2019-05-28T20:53:40.450Z,99.90
2019-05-28T20:56:11.437Z,99.90
2019-05-28T20:58:42.181Z,99.90
2019-05-28T21:01:12.771Z,99.90
2019-05-28T21:03:43.334Z,99.90
2019-05-28T21:06:14.103Z,99.90
2019-05-28T21:08:44.734Z,99.90
2019-05-28T21:11:15.440Z,99.90
2019-05-28T21:13:46.119Z,99.90
2019-05-28T21:16:16.750Z,99.90
2019-05-28T21:18:47.647Z,99.90
2019-05-28T21:21:18.416Z,99.90
2019-05-28T21:23:49.683Z,99.90
2019-05-28T21:26:20.417Z,99.90
2019-05-28T21:28:52.101Z,99.90
2019-05-28T21:31:23.075Z,99.90
2019-05-28T21:33:54.946Z,99.90
2019-05-28T21:36:25.796Z,99.90
2019-05-28T21:38:57.388Z,99.90
2019-05-28T21:41:28.264Z,99.90
2019-05-28T21:44:00.001Z,99.90
2019-05-28T21:46:30.758Z,99.90
2019-05-28T21:49:02.973Z,99.90
2019-05-28T21:51:33.634Z,99.90
2019-05-28T21:54:04.393Z,99.90
2019-05-28T21:56:35.010Z,99.90
2019-05-28T21:59:05.776Z,99.90
2019-05-28T22:01:38.070Z,99.90
2019-05-28T22:04:09.157Z,99.90
2019-05-28T22:06:40.008Z,99.90
2019-05-28T22:09:10.695Z,99.90
2019-05-28T22:11:41.513Z,99.90
2019-05-28T22:14:12.281Z,99.90
2019-05-28T22:16:43.041Z,99.90
2019-05-28T22:19:13.802Z,99.90
2019-05-28T22:21:44.724Z,99.90
2019-05-28T22:24:15.359Z,99.90
2019-05-28T22:26:45.853Z,99.90
2019-05-28T22:29:16.826Z,99.90
2019-05-28T22:31:47.462Z,99.90
2019-05-28T22:34:18.170Z,99.90
2019-05-28T22:36:48.921Z,99.90
2019-05-28T22:39:19.631Z,99.90
2019-05-28T22:41:50.506Z,99.90
2019-05-28T22:44:21.470Z,99.90
2019-05-28T22:46:52.230Z,99.90
2019-05-28T22:49:22.825Z,99.90
2019-05-28T22:51:53.430Z,99.90
2019-05-28T22:54:24.523Z,99.90
2019-05-28T22:56:55.201Z,99.90
2019-05-28T22:59:25.835Z,99.90
2019-05-28T23:01:56.615Z,99.90
2019-05-28T23:04:28.563Z,99.90
2019-05-28T23:06:59.188Z,99.90
2019-05-28T23:09:29.874Z,99.90
2019-05-28T23:12:01.564Z,99.90
2019-05-28T23:14:32.275Z,99.90
2019-05-28T23:17:04.111Z,99.90
2019-05-28T23:19:34.994Z,99.90
2019-05-28T23:22:06.880Z,99.90
2019-05-28T23:24:37.683Z,99.90
2019-05-28T23:27:09.541Z,99.90
2019-05-28T23:29:41.655Z,99.90
2019-05-28T23:32:12.441Z,99.90
2019-05-28T23:34:43.567Z,99.90
2019-05-28T23:37:14.180Z,99.90
2019-05-28T23:39:44.878Z,99.90
2019-05-28T23:42:15.878Z,99.90
2019-05-28T23:44:46.582Z,99.90
2019-05-28T23:47:17.255Z,99.90
2019-05-28T23:49:47.884Z,99.90
2019-05-28T23:52:18.561Z,99.90
2019-05-28T23:54:49.154Z,99.90
2019-05-28T23:57:19.898Z,99.90
2019-05-28T23:59:50.498Z,99.90
